Hot Springs, VA

5:39 PM EDT on May 25, 2017 (GMT -0400)
Ingalls

Weather History for KHSP - October, 2012

Change the Weather History Date:

Sunday, October 21, 2012

  Actual Average Record
Temperature  
Mean Temperature 45 °F -  
Max Temperature 53 °F 55 °F 69 °F (2000)
Min Temperature 37 °F 40 °F 8 °F (1997)
Degree Days  
Heating Degree Days 20    
Moisture  
Dew Point 34 °F    
Average Humidity 68    
Maximum Humidity 87    
Minimum Humidity 47    
Precipitation  
Precipitation 0.00 in - - ()
Sea Level Pressure  
Sea Level Pressure 30.13 in    
Wind  
Wind Speed 10 mph (WNW)    
Max Wind Speed 16 mph    
Max Gust Speed 22 mph    
Visibility 10 miles    
Events      
Averages and records for this station are not official NWS values.
T = Trace of Precipitation, MM = Missing Value Source: NWS Daily Summary

Daily Weather History Graph

Daily Weather History Graph

Search for Another Location

Airport or City:

Trip Planner

Search our weather history database for the weather conditions in past years. The results will help you decide how hot, cold, wet, or windy it might be!

Date:

Astronomy

Oct. 21, 2012 Rise Set
Actual Time 7:34 AM EDT 6:32 PM EDT
Civil Twilight 7:07 AM EDT 6:59 PM EDT
Nautical Twilight 6:36 AM EDT 7:30 PM EDT
Astronomical Twilight 6:06 AM EDT 8:00 PM EDT
Moon 1:51 PM EDT (10/21) No Moon Set
Length of Visible Light 11h 52m
Length of Day
10h 58m
Waxing Crescent, 45% of the Moon is Illuminated
Oct 21
Waxing Crescent
Oct 21
First Quarter
Oct 29
Full
Nov 6
Last Quarter
Nov 13
New

Hourly Weather History & Observations

Time (EDT) Temp. Windchill Dew Point Humidity Pressure Visibility Wind Dir Wind Speed Gust Speed Precip Events Conditions
12:55 AM 39.2 °F 32.5 °F 33.8 °F 81% 30.01 in 10.0 mi WNW 10.4 mph 16.1 mph N/A   Scattered Clouds
1:35 AM 37.4 °F 29.3 °F 33.8 °F 87% 30.01 in 10.0 mi West 12.7 mph 17.3 mph N/A   Clear
1:55 AM 37.4 °F 30.3 °F 33.8 °F 87% 30.01 in 10.0 mi WNW 10.4 mph 19.6 mph N/A   Clear
2:15 AM 39.2 °F 32.0 °F 33.8 °F 81% 30.01 in 10.0 mi WNW 11.5 mph 18.4 mph N/A   Mostly Cloudy
2:35 AM 37.4 °F 30.8 °F 33.8 °F 87% 30.02 in 10.0 mi WNW 9.2 mph 16.1 mph N/A   Scattered Clouds
3:15 AM 37.4 °F 29.3 °F 33.8 °F 87% 30.02 in 10.0 mi West 12.7 mph - N/A   Clear
3:35 AM 37.4 °F 29.8 °F 33.8 °F 87% 30.02 in 10.0 mi WNW 11.5 mph - N/A   Clear
3:55 AM 37.4 °F 28.2 °F 33.8 °F 87% 30.02 in 10.0 mi WNW 16.1 mph 21.9 mph N/A   Scattered Clouds
4:15 AM 37.4 °F 28.5 °F 33.8 °F 87% 30.03 in 10.0 mi WNW 15.0 mph 19.6 mph N/A   Scattered Clouds
4:35 AM 37.4 °F 28.9 °F 33.8 °F 87% 30.03 in 10.0 mi WNW 13.8 mph 20.7 mph N/A   Scattered Clouds
4:55 AM 37.4 °F 29.3 °F 33.8 °F 87% 30.04 in 10.0 mi West 12.7 mph 18.4 mph N/A   Scattered Clouds
5:15 AM 37.4 °F 29.8 °F 33.8 °F 87% 30.05 in 10.0 mi WNW 11.5 mph 18.4 mph N/A   Clear
5:35 AM 37.4 °F 29.3 °F 33.8 °F 87% 30.05 in 10.0 mi WNW 12.7 mph - N/A   Clear
6:15 AM 37.4 °F 29.8 °F 33.8 °F 87% 30.07 in 10.0 mi West 11.5 mph - N/A   Overcast
7:15 AM 37.4 °F 30.8 °F 33.8 °F 87% 30.10 in 10.0 mi West 9.2 mph - N/A   Overcast
7:35 AM 37.4 °F 30.8 °F 33.8 °F 87% 30.10 in 10.0 mi West 9.2 mph - N/A   Overcast
7:55 AM 37.4 °F 30.3 °F 33.8 °F 87% 30.11 in 10.0 mi West 10.4 mph - N/A   Overcast
8:15 AM 37.4 °F 29.8 °F 33.8 °F 87% 30.11 in 10.0 mi WNW 11.5 mph 17.3 mph N/A   Overcast
8:35 AM 37.4 °F 30.3 °F 33.8 °F 87% 30.11 in 10.0 mi NW 10.4 mph 16.1 mph N/A   Mostly Cloudy
8:55 AM 39.2 °F 33.6 °F 33.8 °F 81% 30.12 in 10.0 mi NW 8.1 mph - N/A   Mostly Cloudy
9:35 AM 41.0 °F 34.7 °F 35.6 °F 81% 30.14 in 10.0 mi WNW 10.4 mph 17.3 mph N/A   Scattered Clouds
9:55 AM 41.0 °F 34.7 °F 35.6 °F 81% 30.15 in 10.0 mi West 10.4 mph - N/A   Scattered Clouds
10:35 AM 42.8 °F 37.0 °F 35.6 °F 76% 30.17 in 10.0 mi West 10.4 mph - N/A   Overcast
11:15 AM 42.8 °F 38.0 °F 35.6 °F 76% 30.17 in 10.0 mi WNW 8.1 mph - N/A   Scattered Clouds
11:35 AM 44.6 °F 39.7 °F 35.6 °F 71% 30.18 in 10.0 mi WNW 9.2 mph - N/A   Scattered Clouds
11:55 AM 44.6 °F 40.7 °F 35.6 °F 71% 30.18 in 10.0 mi West 6.9 mph - N/A   Scattered Clouds
12:15 PM 46.4 °F 42.4 °F 35.6 °F 66% 30.17 in 10.0 mi WNW 8.1 mph - N/A   Scattered Clouds
12:35 PM 46.4 °F 42.9 °F 35.6 °F 66% 30.18 in 10.0 mi West 6.9 mph - N/A   Clear
1:15 PM 48.2 °F - 35.6 °F 62% 30.17 in 10.0 mi West 8.1 mph - N/A   Clear
1:35 PM 48.2 °F - 35.6 °F 62% 30.16 in 10.0 mi WSW 4.6 mph - N/A   Clear
1:55 PM 50.0 °F - 37.4 °F 62% 30.16 in 10.0 mi WNW 8.1 mph - N/A   Clear
2:15 PM 51.8 °F - 37.4 °F 58% 30.15 in 10.0 mi West 8.1 mph - N/A   Clear
2:35 PM 51.8 °F - 35.6 °F 54% 30.15 in 10.0 mi WNW 9.2 mph - N/A   Clear
2:55 PM 51.8 °F - 35.6 °F 54% 30.15 in 10.0 mi WNW 10.4 mph - N/A   Clear
3:15 PM 51.8 °F - 35.6 °F 54% 30.15 in 10.0 mi WNW 3.5 mph - N/A   Clear
3:35 PM 53.6 °F - 35.6 °F 51% 30.15 in 10.0 mi WSW 6.9 mph - N/A   Clear
3:55 PM 51.8 °F - 35.6 °F 54% 30.16 in 10.0 mi WNW 4.6 mph - N/A   Clear
4:15 PM 53.6 °F - 35.6 °F 51% 30.15 in 10.0 mi WNW 6.9 mph - N/A   Clear
4:35 PM 53.6 °F - 35.6 °F 51% 30.15 in 10.0 mi West 10.4 mph - N/A   Clear
4:55 PM 53.6 °F - 33.8 °F 47% 30.15 in 10.0 mi WNW 5.8 mph - N/A   Clear
5:15 PM 53.6 °F - 33.8 °F 47% 30.15 in 10.0 mi West 10.4 mph - N/A   Clear
5:35 PM 51.8 °F - 32.0 °F 47% 30.15 in 10.0 mi West 9.2 mph - N/A   Clear
5:55 PM 51.8 °F - 33.8 °F 50% 30.15 in 10.0 mi West 8.1 mph 16.1 mph N/A   Clear
6:15 PM 51.8 °F - 33.8 °F 50% 30.16 in 10.0 mi West 9.2 mph - N/A   Clear
6:35 PM 48.2 °F - 32.0 °F 54% 30.17 in 10.0 mi West 6.9 mph - N/A   Clear
6:55 PM 48.2 °F - 33.8 °F 58% 30.17 in 10.0 mi West 9.2 mph - N/A   Clear
7:15 PM 48.2 °F - 33.8 °F 58% 30.18 in 10.0 mi West 4.6 mph - N/A   Clear
7:35 PM 48.2 °F - 32.0 °F 54% 30.18 in 10.0 mi West 4.6 mph - N/A   Clear
7:55 PM 46.4 °F 42.9 °F 32.0 °F 57% 30.19 in 10.0 mi WNW 6.9 mph - N/A   Clear
8:15 PM 46.4 °F 42.9 °F 32.0 °F 57% 30.19 in 10.0 mi West 6.9 mph - N/A   Clear
8:35 PM 46.4 °F 42.4 °F 32.0 °F 57% 30.18 in 10.0 mi West 8.1 mph - N/A   Clear
8:55 PM 46.4 °F 41.9 °F 33.8 °F 62% 30.19 in 10.0 mi WNW 9.2 mph - N/A   Clear
9:15 PM 46.4 °F 42.9 °F 33.8 °F 62% 30.19 in 10.0 mi WNW 6.9 mph - N/A   Clear
9:35 PM 44.6 °F 40.7 °F 33.8 °F 66% 30.20 in 10.0 mi WNW 6.9 mph - N/A   Clear
9:55 PM 46.4 °F 42.4 °F 32.0 °F 57% 30.20 in 10.0 mi WNW 8.1 mph - N/A   Clear
10:15 PM 46.4 °F 40.7 °F 32.0 °F 57% 30.20 in 10.0 mi WNW 12.7 mph - N/A   Clear
10:35 PM 46.4 °F 41.1 °F 32.0 °F 57% 30.20 in 10.0 mi West 11.5 mph - N/A   Clear
10:55 PM 46.4 °F 39.8 °F 33.8 °F 62% 30.21 in 10.0 mi West 16.1 mph - N/A   Clear
11:15 PM 46.4 °F 40.4 °F 33.8 °F 62% 30.20 in 10.0 mi West 13.8 mph - N/A   Clear
11:35 PM 46.4 °F 40.4 °F 33.8 °F 62% 30.20 in 10.0 mi West 13.8 mph - N/A   Clear
11:55 PM 46.4 °F 40.4 °F 33.8 °F 62% 30.20 in 10.0 mi WNW 13.8 mph 19.6 mph N/A   Clear